Northern & Central Napa County

33 Stations

15 Minute Data | America/Los_Angeles
as of 9/5/26 10:53 AM PDT
Station Date Time Temp (°F) RH (%) Dew Pt (°F) Wind Spd (mph) Wind Dir (°) Wind Gust (mph) Latest Rain (In) Daily Rain (In) Daily Max Temp (°F) Daily Min Temp (°F)
Tenma (North Calistoga) 9/5/26 1045 70.5   5.8 - - - - - 0.00 0.00 70.5   5.5 44.1   7.8
Calistoga-Solari 9/5/26 1045 70.2   5.9 54   16 52.6   1.4 1.8   0.1 N | 356 6.3   0.7 0.00 0.00 71.2   6.2 43.1   5.6
Calistoga-North 9/5/26 1045 74.2   7.7 50   16 54.4   0.5 - - - 0.00 0.00 75.2   7.0 45.1   5.2
Twomey Calistoga 9/5/26 1045 75.3   4.2 46   13 53.2   3.0 1.4   2.1 WNW | 289 3.9   4.7 0.00 0.00 75.3   4.2 39.7   9.1
Paloma 9/5/26 1045 72.6   5.5 52   9 54.2   0.7 2.1   2.4 NNE | 31 5.2   4.6 0.00 0.00 72.6   5.5 41.1   10.0
Calistoga (Ranch 78) 9/5/26 1045 71.6   5.5 49   15 51.2   2.1 1.9   2.1 E | 84 4.5   3.3 0.00 0.00 73.2   6.8 41.5   10.7
Diamond Mtn (Schramsberg) 9/5/26 1045 68.1   3.0 55   14 51.1   3.3 - - - 0.00 0.00 68.9   3.3 50.2   1.0
Diamond Mtn (McEachran) 9/5/26 1045 67.2   4.3 57   14 51.4   1.9 - - - - - 68.7   5.0 49.3   2.4
Deer Park 9/5/26 1045 71.4   5.4 47   13 50.1   1.4 3.3   0.4 SW | 234 7.8   0.7 0.00 0.00 71.4   5.2 50.1   4.3
St. Helena-North 9/5/26 1045 72.2   2.2 45   7 49.9   2.1 1.7   0.2 ESE | 116 4.8   0.7 0.00 0.00 73.4   2.7 46.2   5.5
St. Helena (NVV Office) 9/5/26 1045 72.7   4.5 - - 1.5   0.2 SSE | 147 4.6   0.2 0.00 0.00 73.6   4.6 46.3   2.7
Tiara Fria (East St. Helena) 9/5/26 1045 69.3   1.3 52   5 51.2   1.4 2.5   0.7 SSE | 157 5.1   0.6 0.00 0.00 70.1   1.4 43.2   6.0
Prisoner Winery 9/5/26 1045 71.6   2.1 49   7 51.5   1.8 1.4   0.5 ESE | 112 3.9   1.0 0.00 0.00 72.6   1.7 44.0   4.2
Rutherford Hill Estate 9/5/26 1045 68.3   2.7 56   12 52.0   2.9 2.1   0.4 S | 186 5.7   1.3 0.00 0.00 69.1   2.6 49.7   1.8
Rutherford-North (Mee Ln) 9/5/26 1045 70.3   1.6 51   7 51.4   1.9 3.1   0.7 SE | 125 6.4   1.3 0.00 0.00 71.2   2.1 41.6   2.4
Rutherford (STS) 9/5/26 1045 71.3   0.8 57   5 55.3   3.2 2.1   0.9 SSE | 157 5.8   2.0 0.00 0.00 71.3   0.8 41.1   4.5
Silver Oak OV 9/5/26 1045 69.2   2.3 54   9 51.8   2.2 2.8   1.2 ESE | 123 5.6   1.4 0.00 0.00 70.2   2.5 41.7   8.5
Oakville-NE (Ranch 88) 9/5/26 1045 70.9   2.4 47   9 49.8   2.5 1.8   1.8 S | 179 6.0   6.0 0.00 0.00 71.6   1.8 40.3   8.6
Crossroads Ranch 9/5/26 1045 69.1   3.4 58   8 53.9   0.5 3.1   1.8 ESE | 118 6.4   3.1 0.00 0.00 69.1   3.2 42.1   9.3
Oakville 9/5/26 1045 69.5   2.7 52   9 51.2   1.6 3.1   1.0 SE | 130 7.3   2.6 0.00 0.00 70.5   2.8 42.2   9.1
To Kalon Remote (TKKE) 9/5/26 1045 70.8   1.3 - - - - - - - 71.6   1.6 43.0   4.5
To Kalon 9/5/26 1045 69.6   1.1 54   4 52.0   1.1 2.9   1.2 SSE | 151 6.9   2.4 0.00 0.00 70.1   1.1 43.7   4.9
To Kalon Remote (TKN5) 9/5/26 1045 69.6   2.1 - - - - - - - 69.9   2.0 43.2   4.8
Jump Rock 9/5/26 1045 66.2   2.3 61   9 52.5   1.5 3.5   2.0 W | 274 6.9   1.0 0.00 0.00 66.8   2.6 40.8   5.2
State Lane Ranch 9/5/26 1045 69.0   1.6 61   9 55.0   2.1 3.5   2.3 SE | 124 7.5   2.7 0.00 0.00 69.8   2.0 40.9   11.6
Yountville (Ranch 67) 9/5/26 1045 68.1   1.3 54   7 50.9   2.0 4.0   2.4 S | 169 7.5   3.9 0.00 0.00 68.7   1.5 41.4   11.3
Borreo (Soda Canyon) 9/5/26 1045 67.0   3.3 57   14 51.1   2.8 2.9   0.2 ESE | 108 6.4   0.7 0.00 0.00 67.4   3.2 45.7   4.3
Wappo Hill Floor 9/5/26 1045 69.4   0.7 54   5 52.2   1.7 2.4   0.3 SSE | 163 6.5   1.6 0.00 0.00 70.7   1.8 41.8   10.3
Wappo Hill 9/5/26 1045 69.6   2.8 53   8 51.8   1.3 3.3   1.2 SE | 143 7.5   2.5 0.00 0.00 69.7   2.2 46.9   7.4
Stags Leap Dist (Chimney Rock) 9/5/26 1045 67.7   1.5 64   9 54.9   2.3 2.5   0.2 S | 183 5.6   1.5 0.00 0.00 68.5   1.8 41.7   13.9
Stags Leap Dist (Silverado Vineyards) 9/5/26 1045 67.6   1.5 55   7 50.9   2.0 2.6   0.8 SSE | 159 4.9   0.8 0.00 0.00 68.4   1.6 42.4   10.9
Yountville-SE (Ranch 85) 9/5/26 1045 66.9   1.7 60   8 52.8   1.8 1.7   0.8 SE | 137 5.0   1.4 0.00 0.00 67.5   1.9 43.2   11.6
Yountville-South (Ranch 87) 9/5/26 1045 66.2   1.3 62   6 52.6   1.2 1.4   0.6 SSE | 156 4.8   1.8 0.00 0.00 67.4   1.9 42.8   11.3
Max     75.3 64 55.3 4.0 - 7.8 0.00 0.00 75.3 50.2
Avg     69.8 54 52.2 2.5 - 5.9 0.00 - - -
Min     66.2 45 49.8 1.4 - 3.9 0.00 0.00 66.8 39.7